Terminal Aerodrome Forecast
Issued by NWS Charleston, WV

Current Version | Previous Version | Text Only | Print | Product List | Glossary Off
Versions: 1 2 3 4 5 6 7 8 9 10 11 12 13 14 15 16 17 18 19 20 21 22 23 24 25

000
FTUS41 KRLX 291739
TAFBKW
TAF
KBKW 291739Z 2918/3018 22006KT P6SM BKN070
     FM300800 00000KT 6SM SHRA BR BKN035
     FM301100 VRB03KT P6SM BKN025
     FM301300 21004KT P6SM VCTS BKN025CB=

USA.gov is the U.S. government's official web portal to all federal, state and local government web resources and services.